createdAt,value
2022-12-11T05:00:29.545Z,0.00
2022-12-11T05:01:29.517Z,0.00
2022-12-11T05:02:29.565Z,0.00
2022-12-11T05:03:29.449Z,0.00
2022-12-11T05:04:29.443Z,0.00
2022-12-11T05:05:29.429Z,0.00
2022-12-11T05:06:29.415Z,0.00
2022-12-11T05:07:29.412Z,0.00
2022-12-11T05:08:29.467Z,0.00
2022-12-11T05:09:29.381Z,0.00
2022-12-11T05:10:29.414Z,0.00
2022-12-11T05:11:34.393Z,0.00
2022-12-11T05:12:29.372Z,0.00
2022-12-11T05:13:29.339Z,0.00
2022-12-11T05:14:29.368Z,0.00
2022-12-11T05:15:29.319Z,0.00
2022-12-11T05:16:29.375Z,0.00
2022-12-11T05:17:29.310Z,0.00
2022-12-11T05:18:29.298Z,0.00
2022-12-11T05:19:29.272Z,0.00
2022-12-11T05:20:29.266Z,0.00
2022-12-11T05:21:34.781Z,0.00
2022-12-11T05:22:35.304Z,0.00
2022-12-11T05:23:29.231Z,0.00
2022-12-11T05:24:29.224Z,0.00
2022-12-11T05:25:29.207Z,0.00
2022-12-11T05:26:29.200Z,0.00
2022-12-11T05:27:29.191Z,0.00
2022-12-11T05:28:29.207Z,0.00
2022-12-11T05:29:29.168Z,0.00
2022-12-11T05:30:29.166Z,0.00
2022-12-11T05:31:29.252Z,0.00
2022-12-11T05:32:29.161Z,0.00
2022-12-11T05:33:34.164Z,0.00
2022-12-11T05:34:29.122Z,0.00
2022-12-11T05:35:29.107Z,0.00
2022-12-11T05:36:29.089Z,0.00
2022-12-11T05:37:29.077Z,0.00
2022-12-11T05:38:29.079Z,0.00
2022-12-11T05:39:29.055Z,0.00
2022-12-11T05:40:29.046Z,0.00
2022-12-11T05:41:29.036Z,0.00
2022-12-11T05:42:29.342Z,0.00
2022-12-11T05:43:29.025Z,0.00
2022-12-11T05:44:34.039Z,0.00
2022-12-11T05:45:28.993Z,0.00
2022-12-11T05:46:29.033Z,0.00
2022-12-11T05:47:28.967Z,0.00
2022-12-11T05:48:28.993Z,0.00
2022-12-11T05:49:30.978Z,0.00
2022-12-11T05:50:28.941Z,0.00
2022-12-11T05:51:28.924Z,0.00
2022-12-11T05:52:28.918Z,0.00
2022-12-11T05:53:28.915Z,0.00
2022-12-11T05:54:28.895Z,0.00
2022-12-11T05:55:33.914Z,0.00
2022-12-11T05:56:29.138Z,0.00
2022-12-11T05:57:28.859Z,0.00
2022-12-11T05:58:28.867Z,0.00
2022-12-11T05:59:28.837Z,0.00
2022-12-11T06:00:32.977Z,0.00
2022-12-11T06:01:29.824Z,0.00
2022-12-11T06:02:28.911Z,0.00
2022-12-11T06:03:28.810Z,0.00
2022-12-11T06:04:28.814Z,0.00
2022-12-11T06:05:28.776Z,0.00
2022-12-11T06:06:33.826Z,0.00
2022-12-11T06:07:28.754Z,0.00
2022-12-11T06:08:28.836Z,0.00
2022-12-11T06:09:28.728Z,0.00
2022-12-11T06:10:28.721Z,0.00
2022-12-11T06:11:28.712Z,0.00
2022-12-11T06:12:28.699Z,0.00
2022-12-11T06:13:28.696Z,0.00
2022-12-11T06:14:28.676Z,0.00
2022-12-11T06:15:28.677Z,0.00
2022-12-11T06:16:28.724Z,0.00
2022-12-11T06:17:33.669Z,0.00
2022-12-11T06:18:28.644Z,0.00
2022-12-11T06:19:32.007Z,0.00
2022-12-11T06:20:29.632Z,0.00
2022-12-11T06:21:28.608Z,0.00
2022-12-11T06:22:28.590Z,0.00
2022-12-11T06:23:28.595Z,0.00
2022-12-11T06:24:28.568Z,0.00
2022-12-11T06:25:28.561Z,0.00
2022-12-11T06:26:28.567Z,0.00
2022-12-11T06:27:28.535Z,0.00
2022-12-11T06:28:33.557Z,0.00
2022-12-11T06:29:28.523Z,0.00
2022-12-11T06:30:38.461Z,0.00
2022-12-11T06:31:29.526Z,0.00
2022-12-11T06:32:28.490Z,0.00
2022-12-11T06:33:28.490Z,0.00
2022-12-11T06:34:28.464Z,0.00
2022-12-11T06:35:28.446Z,0.00
2022-12-11T06:36:28.459Z,0.00
2022-12-11T06:37:28.427Z,0.00
2022-12-11T06:38:28.427Z,0.00
2022-12-11T06:39:33.427Z,4.00
2022-12-11T06:40:28.524Z,4.00
2022-12-11T06:41:28.379Z,0.00
2022-12-11T06:42:28.374Z,4.00
2022-12-11T06:43:28.372Z,4.00
2022-12-11T06:44:28.355Z,4.00
2022-12-11T06:45:28.398Z,4.00
2022-12-11T06:46:28.374Z,4.00
2022-12-11T06:47:28.317Z,4.00
2022-12-11T06:48:28.317Z,8.00
2022-12-11T06:49:28.296Z,8.00
2022-12-11T06:50:33.316Z,12.00
2022-12-11T06:51:28.276Z,12.00
2022-12-11T06:52:28.281Z,12.00
2022-12-11T06:53:28.262Z,16.00
2022-12-11T06:54:28.238Z,12.00
2022-12-11T06:55:28.236Z,16.00
2022-12-11T06:56:28.221Z,20.00
2022-12-11T06:57:28.209Z,24.00
2022-12-11T06:58:28.206Z,28.00
2022-12-11T06:59:28.189Z,28.00
2022-12-11T07:00:28.176Z,36.00
2022-12-11T07:01:33.192Z,36.00
2022-12-11T07:02:28.224Z,44.00
2022-12-11T07:03:28.159Z,48.00
2022-12-11T07:04:28.133Z,56.00
2022-12-11T07:05:28.137Z,60.00
2022-12-11T07:06:28.115Z,68.00
2022-12-11T07:07:28.101Z,76.00
2022-12-11T07:08:28.171Z,84.00
2022-12-11T07:09:28.081Z,92.00
2022-12-11T07:10:28.065Z,100.00
2022-12-11T07:11:28.056Z,112.00
2022-12-11T07:12:33.069Z,124.00
2022-12-11T07:13:28.045Z,132.00
2022-12-11T07:14:28.022Z,144.00
2022-12-11T07:15:28.013Z,152.00
2022-12-11T07:16:28.101Z,164.00
2022-12-11T07:17:27.991Z,184.00
2022-12-11T07:18:27.995Z,192.00
2022-12-11T07:19:27.982Z,204.00
2022-12-11T07:20:28.007Z,212.00
2022-12-11T07:21:27.956Z,220.00
2022-12-11T07:22:27.965Z,228.00
2022-12-11T07:23:32.979Z,244.00
2022-12-11T07:24:27.912Z,252.00
2022-12-11T07:25:27.909Z,268.00
2022-12-11T07:26:27.895Z,280.00
2022-12-11T07:27:27.912Z,292.00
2022-12-11T07:28:27.913Z,304.00
2022-12-11T07:29:27.861Z,320.00
2022-12-11T07:30:27.884Z,336.00
2022-12-11T07:31:27.870Z,356.00
2022-12-11T07:32:28.022Z,376.00
2022-12-11T07:33:27.837Z,400.00
2022-12-11T07:34:32.859Z,408.00
2022-12-11T07:35:27.794Z,424.00
2022-12-11T07:36:27.788Z,444.00
2022-12-11T07:37:27.775Z,452.00
2022-12-11T07:38:27.773Z,460.00
2022-12-11T07:39:27.806Z,464.00
2022-12-11T07:40:27.786Z,472.00
2022-12-11T07:41:27.736Z,476.00
2022-12-11T07:42:27.720Z,480.00
2022-12-11T07:43:27.728Z,492.00
2022-12-11T07:44:27.701Z,496.00
2022-12-11T07:45:32.725Z,508.00
2022-12-11T07:46:27.677Z,532.00
2022-12-11T07:47:27.669Z,556.00
2022-12-11T07:48:27.672Z,576.00
2022-12-11T07:49:27.647Z,608.00
2022-12-11T07:50:27.701Z,640.00
2022-12-11T07:51:27.642Z,684.00
2022-12-11T07:52:27.610Z,740.00
2022-12-11T07:53:27.605Z,800.00
2022-12-11T07:54:27.601Z,836.00
2022-12-11T07:55:27.604Z,896.00
2022-12-11T07:56:32.598Z,936.00
2022-12-11T07:57:27.556Z,972.00
2022-12-11T07:58:27.550Z,988.00
2022-12-11T07:59:27.549Z,1028.00
2022-12-11T08:00:27.522Z,1080.00
2022-12-11T08:01:27.635Z,1124.00
2022-12-11T08:02:31.273Z,1160.00
2022-12-11T08:03:28.499Z,1184.00
2022-12-11T08:04:27.497Z,1176.00
2022-12-11T08:05:27.473Z,1216.00
2022-12-11T08:06:27.508Z,1240.00
2022-12-11T08:07:32.470Z,1304.00
2022-12-11T08:08:27.522Z,1284.00
2022-12-11T08:09:27.443Z,1268.00
2022-12-11T08:10:27.416Z,1296.00
2022-12-11T08:11:27.428Z,1264.00
2022-12-11T08:12:27.392Z,1328.00
2022-12-11T08:13:27.386Z,1348.00
2022-12-11T08:14:27.384Z,1440.00
2022-12-11T08:15:27.363Z,1552.00
2022-12-11T08:16:27.373Z,1652.00
2022-12-11T08:17:30.251Z,1612.00
2022-12-11T08:18:33.350Z,1764.00
2022-12-11T08:19:27.344Z,1864.00
2022-12-11T08:20:27.308Z,1980.00
2022-12-11T08:21:27.308Z,2220.00
2022-12-11T08:22:27.282Z,2128.00
2022-12-11T08:23:27.274Z,2144.00
2022-12-11T08:24:27.276Z,2292.00
2022-12-11T08:25:27.251Z,2580.00
2022-12-11T08:26:27.241Z,2664.00
2022-12-11T08:27:27.249Z,2684.00
2022-12-11T08:28:27.464Z,2544.00
2022-12-11T08:29:32.246Z,2824.00
2022-12-11T08:30:27.242Z,2716.00
2022-12-11T08:31:27.189Z,2616.00
2022-12-11T08:32:27.176Z,2660.00
2022-12-11T08:33:27.170Z,2844.00
2022-12-11T08:34:27.175Z,2792.00
2022-12-11T08:35:27.147Z,2948.00
2022-12-11T08:36:27.138Z,2980.00
2022-12-11T08:37:27.127Z,2716.00
2022-12-11T08:38:27.120Z,2640.00
2022-12-11T08:39:27.111Z,2848.00
2022-12-11T08:40:32.109Z,2772.00
2022-12-11T08:41:27.078Z,2768.00
2022-12-11T08:42:27.066Z,2852.00
2022-12-11T08:43:27.080Z,2852.00
2022-12-11T08:44:27.059Z,2840.00
2022-12-11T08:45:27.036Z,2744.00
2022-12-11T08:46:27.094Z,2704.00
2022-12-11T08:47:27.013Z,2648.00
2022-12-11T08:48:27.002Z,2584.00
2022-12-11T08:49:32.700Z,2492.00
2022-12-11T08:50:27.977Z,2528.00
2022-12-11T08:51:31.993Z,2440.00
2022-12-11T08:52:26.955Z,2428.00
2022-12-11T08:53:26.988Z,2444.00
2022-12-11T08:54:26.947Z,2448.00
2022-12-11T08:55:26.928Z,2416.00
2022-12-11T08:56:26.920Z,2484.00
2022-12-11T08:57:26.909Z,2436.00
2022-12-11T08:58:26.894Z,2468.00
2022-12-11T08:59:26.910Z,2476.00
2022-12-11T09:00:26.874Z,2524.00
2022-12-11T09:01:27.050Z,2740.00
2022-12-11T09:02:31.960Z,2784.00
2022-12-11T09:03:26.898Z,2716.00
2022-12-11T09:04:26.839Z,2672.00
2022-12-11T09:05:26.826Z,2720.00
2022-12-11T09:06:26.826Z,2756.00
2022-12-11T09:07:26.800Z,2712.00
2022-12-11T09:08:26.874Z,2744.00
2022-12-11T09:09:26.793Z,2788.00
2022-12-11T09:10:26.768Z,2748.00
2022-12-11T09:11:26.761Z,2632.00
2022-12-11T09:12:26.743Z,2476.00
2022-12-11T09:13:31.755Z,2276.00
2022-12-11T09:14:26.740Z,2232.00
2022-12-11T09:15:26.729Z,2164.00
2022-12-11T09:16:26.704Z,2128.00
2022-12-11T09:17:26.686Z,2084.00
2022-12-11T09:18:26.676Z,2068.00
2022-12-11T09:19:32.027Z,2092.00
2022-12-11T09:20:27.650Z,2148.00
2022-12-11T09:21:26.643Z,2180.00
2022-12-11T09:22:26.646Z,2168.00
2022-12-11T09:23:26.627Z,2108.00
2022-12-11T09:24:31.653Z,2028.00
2022-12-11T09:25:26.614Z,1952.00
2022-12-11T09:26:26.589Z,1908.00
2022-12-11T09:27:26.581Z,1860.00
2022-12-11T09:28:26.566Z,1732.00
2022-12-11T09:29:26.578Z,1668.00
2022-12-11T09:30:26.548Z,1664.00
2022-12-11T09:31:26.554Z,1712.00
2022-12-11T09:32:26.525Z,1820.00
2022-12-11T09:33:26.516Z,1948.00
2022-12-11T09:34:29.433Z,2036.00
2022-12-11T09:35:31.717Z,2100.00
2022-12-11T09:36:26.481Z,2104.00
2022-12-11T09:37:26.476Z,2044.00
2022-12-11T09:38:26.471Z,1996.00
2022-12-11T09:39:26.467Z,1992.00
2022-12-11T09:40:26.435Z,2064.00
2022-12-11T09:41:26.433Z,2140.00
2022-12-11T09:42:26.416Z,2188.00
2022-12-11T09:43:26.404Z,2244.00
2022-12-11T09:44:26.418Z,2340.00
2022-12-11T09:45:26.384Z,2464.00
2022-12-11T09:46:34.112Z,2672.00
2022-12-11T09:47:26.408Z,2868.00
2022-12-11T09:48:26.351Z,3052.00
2022-12-11T09:49:26.357Z,3212.00
2022-12-11T09:50:26.327Z,3300.00
2022-12-11T09:51:26.320Z,3252.00
2022-12-11T09:52:26.305Z,3340.00
2022-12-11T09:53:30.990Z,3416.00
2022-12-11T09:54:27.300Z,3404.00
2022-12-11T09:55:26.274Z,3328.00
2022-12-11T09:56:26.261Z,3320.00
2022-12-11T09:57:31.277Z,3328.00
2022-12-11T09:58:26.252Z,3388.00
2022-12-11T09:59:26.229Z,3488.00
2022-12-11T10:00:26.227Z,3580.00
2022-12-11T10:01:26.267Z,3688.00
2022-12-11T10:02:26.352Z,3728.00
2022-12-11T10:03:26.191Z,3756.00
2022-12-11T10:04:26.176Z,3792.00
2022-12-11T10:05:26.177Z,3752.00
2022-12-11T10:06:26.152Z,3788.00
2022-12-11T10:07:26.143Z,3812.00
2022-12-11T10:08:31.151Z,3828.00
2022-12-11T10:09:26.128Z,3916.00
2022-12-11T10:10:26.123Z,3992.00
2022-12-11T10:11:26.111Z,4000.00
2022-12-11T10:12:26.088Z,3900.00
2022-12-11T10:13:26.098Z,3672.00
2022-12-11T10:14:26.115Z,3384.00
2022-12-11T10:15:26.092Z,3064.00
2022-12-11T10:16:26.045Z,2820.00
2022-12-11T10:17:26.043Z,2564.00
2022-12-11T10:18:26.042Z,2468.00
2022-12-11T10:19:31.072Z,2488.00
2022-12-11T10:20:26.014Z,2624.00
2022-12-11T10:21:25.993Z,2808.00
2022-12-11T10:22:25.995Z,2984.00
2022-12-11T10:23:25.999Z,3096.00
2022-12-11T10:25:05.723Z,3176.00
2022-12-11T10:25:27.327Z,3304.00
2022-12-11T10:26:25.934Z,3320.00
2022-12-11T10:27:25.929Z,3344.00
2022-12-11T10:28:25.925Z,3412.00
2022-12-11T10:29:25.905Z,3512.00
2022-12-11T10:30:34.431Z,3612.00
2022-12-11T10:31:25.947Z,3492.00
2022-12-11T10:32:25.924Z,3176.00
2022-12-11T10:33:25.866Z,2864.00
2022-12-11T10:34:25.870Z,2652.00
2022-12-11T10:35:25.847Z,2528.00
2022-12-11T10:36:25.841Z,2392.00
2022-12-11T10:37:25.818Z,2228.00
2022-12-11T10:38:25.806Z,2088.00
2022-12-11T10:39:25.797Z,1980.00
2022-12-11T10:40:25.785Z,1920.00
2022-12-11T10:41:30.810Z,1992.00
2022-12-11T10:42:25.763Z,2220.00
2022-12-11T10:43:25.751Z,2564.00
2022-12-11T10:44:25.738Z,2980.00
2022-12-11T10:45:25.729Z,3452.00
2022-12-11T10:46:25.758Z,3804.00
2022-12-11T10:47:25.732Z,4024.00
2022-12-11T10:48:25.763Z,4108.00
2022-12-11T10:49:25.695Z,4244.00
2022-12-11T10:50:25.694Z,4236.00
2022-12-11T10:51:25.682Z,4084.00
2022-12-11T10:52:30.699Z,3844.00
2022-12-11T10:53:25.646Z,3616.00
2022-12-11T10:54:25.638Z,3444.00
2022-12-11T10:55:25.619Z,3296.00
2022-12-11T10:56:25.619Z,3232.00
2022-12-11T10:57:25.601Z,3264.00
2022-12-11T10:58:25.590Z,3320.00
2022-12-11T10:59:25.582Z,3404.00
2022-12-11T11:00:25.576Z,3452.00
2022-12-11T11:01:25.609Z,3540.00
2022-12-11T11:02:25.659Z,3600.00
2022-12-11T11:03:30.558Z,3720.00
2022-12-11T11:04:25.525Z,3948.00
2022-12-11T11:05:25.541Z,4220.00
2022-12-11T11:06:25.535Z,4524.00
2022-12-11T11:07:25.488Z,4684.00
2022-12-11T11:08:25.592Z,4604.00
2022-12-11T11:09:25.479Z,4348.00
2022-12-11T11:10:25.528Z,4076.00
2022-12-11T11:11:25.447Z,3724.00
2022-12-11T11:12:25.446Z,3644.00
2022-12-11T11:13:25.425Z,3796.00
2022-12-11T11:14:30.452Z,3984.00
2022-12-11T11:15:25.421Z,3980.00
2022-12-11T11:16:25.416Z,3996.00
2022-12-11T11:17:26.870Z,3940.00
2022-12-11T11:18:25.373Z,3776.00
2022-12-11T11:19:25.362Z,3576.00
2022-12-11T11:20:25.352Z,3468.00
2022-12-11T11:21:25.359Z,3488.00
2022-12-11T11:22:25.364Z,3700.00
2022-12-11T11:23:25.319Z,4020.00
2022-12-11T11:24:25.315Z,4332.00
2022-12-11T11:25:30.343Z,4672.00
2022-12-11T11:26:38.243Z,4932.00
2022-12-11T11:27:26.280Z,4780.00
2022-12-11T11:28:25.276Z,4740.00
2022-12-11T11:29:25.251Z,4692.00
2022-12-11T11:30:25.248Z,4448.00
2022-12-11T11:31:25.286Z,4196.00
2022-12-11T11:32:25.230Z,4068.00
2022-12-11T11:33:25.206Z,3872.00
2022-12-11T11:34:25.198Z,3624.00
2022-12-11T11:35:25.187Z,3624.00
2022-12-11T11:36:30.207Z,3724.00
2022-12-11T11:37:25.171Z,3856.00
2022-12-11T11:38:25.297Z,3848.00
2022-12-11T11:39:25.142Z,3788.00
2022-12-11T11:40:25.132Z,3732.00
2022-12-11T11:41:25.123Z,3808.00
2022-12-11T11:42:25.133Z,3816.00
2022-12-11T11:43:25.111Z,3788.00
2022-12-11T11:44:25.088Z,3504.00
2022-12-11T11:45:25.075Z,3208.00
2022-12-11T11:46:25.105Z,3024.00
2022-12-11T11:47:30.086Z,3108.00
2022-12-11T11:48:25.050Z,3428.00
2022-12-11T11:49:25.037Z,3688.00
2022-12-11T11:50:25.022Z,3624.00
2022-12-11T11:51:25.022Z,3564.00
2022-12-11T11:52:25.018Z,3776.00
2022-12-11T11:53:24.996Z,3872.00
2022-12-11T11:54:25.001Z,3844.00
2022-12-11T11:55:24.974Z,3784.00
2022-12-11T11:56:24.957Z,3872.00
2022-12-11T11:57:24.956Z,3956.00
2022-12-11T11:58:29.961Z,3936.00
2022-12-11T11:59:24.925Z,3804.00
2022-12-11T12:00:28.853Z,3636.00
2022-12-11T12:01:25.910Z,3432.00
2022-12-11T12:02:24.975Z,3420.00
2022-12-11T12:03:24.880Z,3580.00
2022-12-11T12:04:24.870Z,3724.00
2022-12-11T12:05:24.874Z,3660.00
2022-12-11T12:06:24.852Z,3460.00
2022-12-11T12:07:24.856Z,3412.00
2022-12-11T12:08:24.916Z,3480.00
2022-12-11T12:09:29.922Z,3536.00
2022-12-11T12:10:24.807Z,3460.00
2022-12-11T12:11:24.799Z,3344.00
2022-12-11T12:12:28.597Z,3280.00
2022-12-11T12:13:48.700Z,3256.00
2022-12-11T12:14:52.965Z,3340.00
2022-12-11T12:15:25.758Z,3436.00
2022-12-11T12:16:51.780Z,3484.00
2022-12-11T12:17:25.814Z,3444.00
2022-12-11T12:18:24.732Z,3296.00
2022-12-11T12:19:24.705Z,3040.00
2022-12-11T12:20:29.722Z,2776.00
2022-12-11T12:21:24.701Z,2636.00
2022-12-11T12:22:24.688Z,2636.00
2022-12-11T12:23:24.671Z,2760.00
2022-12-11T12:24:24.665Z,2896.00
2022-12-11T12:25:24.662Z,2912.00
2022-12-11T12:26:24.642Z,2872.00
2022-12-11T12:27:51.126Z,2868.00
2022-12-11T12:28:25.618Z,2832.00
2022-12-11T12:29:24.602Z,2772.00
2022-12-11T12:30:24.591Z,2732.00
2022-12-11T12:31:29.634Z,2680.00
2022-12-11T12:32:24.565Z,2632.00
2022-12-11T12:33:24.569Z,2600.00
2022-12-11T12:34:24.545Z,2564.00
2022-12-11T12:35:24.531Z,2556.00
2022-12-11T12:36:24.521Z,2568.00
2022-12-11T12:37:24.527Z,2552.00
2022-12-11T12:38:24.529Z,2500.00
2022-12-11T12:39:24.487Z,2468.00
2022-12-11T12:40:24.490Z,2448.00
2022-12-11T12:41:24.502Z,2488.00
2022-12-11T12:42:29.514Z,2612.00
2022-12-11T12:43:24.454Z,2712.00
2022-12-11T12:44:24.509Z,2728.00
2022-12-11T12:45:24.495Z,2640.00
2022-12-11T12:46:24.418Z,2520.00
2022-12-11T12:47:24.400Z,2428.00
2022-12-11T12:48:24.427Z,2384.00
2022-12-11T12:49:24.379Z,2396.00
2022-12-11T12:50:24.369Z,2492.00
2022-12-11T12:51:24.367Z,2640.00
2022-12-11T12:52:24.351Z,2776.00
2022-12-11T12:53:29.365Z,2824.00
2022-12-11T12:54:24.324Z,2796.00
2022-12-11T12:55:24.323Z,2740.00
2022-12-11T12:56:24.306Z,2604.00
2022-12-11T12:57:24.323Z,2448.00
2022-12-11T12:58:24.281Z,2300.00
2022-12-11T12:59:24.279Z,2220.00
2022-12-11T13:00:24.263Z,2240.00
2022-12-11T13:01:24.317Z,2324.00
2022-12-11T13:02:24.336Z,2416.00
2022-12-11T13:03:24.229Z,2484.00
2022-12-11T13:04:54.516Z,2508.00
2022-12-11T13:05:25.205Z,2472.00
2022-12-11T13:06:24.201Z,2404.00
2022-12-11T13:07:24.186Z,2380.00
2022-12-11T13:08:24.251Z,2368.00
2022-12-11T13:09:24.181Z,2276.00
2022-12-11T13:10:24.153Z,2152.00
2022-12-11T13:11:24.157Z,2144.00
2022-12-11T13:12:24.128Z,2144.00
2022-12-11T13:13:24.156Z,2076.00
2022-12-11T13:14:24.128Z,1984.00
2022-12-11T13:15:29.129Z,1904.00
2022-12-11T13:16:24.158Z,1856.00
2022-12-11T13:17:24.079Z,1836.00
2022-12-11T13:18:24.068Z,1824.00
2022-12-11T13:19:24.059Z,1856.00
2022-12-11T13:20:24.069Z,1944.00
2022-12-11T13:21:24.036Z,2028.00
2022-12-11T13:22:24.040Z,2072.00
2022-12-11T13:23:24.009Z,2076.00
2022-12-11T13:24:24.013Z,2064.00
2022-12-11T13:25:24.030Z,2056.00
2022-12-11T13:26:29.006Z,2080.00
2022-12-11T13:27:23.966Z,2124.00
2022-12-11T13:28:23.961Z,2156.00
2022-12-11T13:29:29.834Z,2144.00
2022-12-11T13:30:24.968Z,2068.00
2022-12-11T13:31:23.968Z,1960.00
2022-12-11T13:32:23.910Z,1876.00
2022-12-11T13:33:23.914Z,1824.00
2022-12-11T13:34:23.903Z,1812.00
2022-12-11T13:35:23.888Z,1816.00
2022-12-11T13:36:24.990Z,1796.00
2022-12-11T13:37:28.880Z,1772.00
2022-12-11T13:38:23.849Z,1740.00
2022-12-11T13:39:23.840Z,1680.00
2022-12-11T13:40:23.835Z,1576.00
2022-12-11T13:41:23.814Z,1504.00
2022-12-11T13:42:23.805Z,1460.00
2022-12-11T13:43:23.793Z,1432.00
2022-12-11T13:44:23.787Z,1404.00
2022-12-11T13:45:23.798Z,1404.00
2022-12-11T13:46:23.818Z,1452.00
2022-12-11T13:47:23.751Z,1508.00
2022-12-11T13:48:28.769Z,1564.00
2022-12-11T13:49:23.724Z,1584.00
2022-12-11T13:50:23.730Z,1592.00
2022-12-11T13:51:23.702Z,1584.00
2022-12-11T13:52:23.692Z,1560.00
2022-12-11T13:53:23.690Z,1528.00
2022-12-11T13:54:23.688Z,1528.00
2022-12-11T13:55:23.684Z,1548.00
2022-12-11T13:56:23.670Z,1556.00
2022-12-11T13:57:23.651Z,1504.00
2022-12-11T13:58:23.626Z,1396.00
2022-12-11T13:59:28.641Z,1236.00
2022-12-11T14:00:23.963Z,1068.00
2022-12-11T14:01:23.685Z,940.00
2022-12-11T14:02:23.810Z,836.00
2022-12-11T14:03:23.589Z,756.00
2022-12-11T14:04:23.574Z,724.00
2022-12-11T14:05:23.551Z,696.00
2022-12-11T14:06:23.563Z,696.00
2022-12-11T14:07:23.604Z,716.00
2022-12-11T14:08:23.645Z,720.00
2022-12-11T14:09:23.617Z,748.00
2022-12-11T14:10:28.523Z,780.00
2022-12-11T14:11:23.502Z,800.00
2022-12-11T14:12:23.487Z,820.00
2022-12-11T14:13:23.461Z,820.00
2022-12-11T14:14:23.451Z,836.00
2022-12-11T14:15:23.444Z,852.00
2022-12-11T14:16:23.504Z,812.00
2022-12-11T14:17:23.430Z,728.00
2022-12-11T14:18:23.426Z,688.00
2022-12-11T14:19:23.400Z,672.00
2022-12-11T14:20:23.385Z,680.00
2022-12-11T14:21:28.421Z,656.00
2022-12-11T14:22:23.388Z,668.00
2022-12-11T14:23:23.358Z,676.00
2022-12-11T14:24:23.345Z,676.00
2022-12-11T14:25:23.331Z,648.00
2022-12-11T14:26:23.322Z,584.00
2022-12-11T14:27:23.324Z,520.00
2022-12-11T14:28:23.325Z,508.00
2022-12-11T14:29:23.289Z,496.00
2022-12-11T14:30:23.284Z,476.00
2022-12-11T14:31:23.326Z,480.00
2022-12-11T14:32:28.317Z,516.00
2022-12-11T14:33:23.260Z,532.00
2022-12-11T14:34:23.276Z,512.00
2022-12-11T14:35:23.229Z,504.00
2022-12-11T14:36:23.218Z,516.00
2022-12-11T14:37:23.210Z,524.00
2022-12-11T14:38:23.203Z,520.00
2022-12-11T14:39:23.181Z,524.00
2022-12-11T14:40:23.170Z,556.00
2022-12-11T14:41:23.167Z,588.00
2022-12-11T14:42:23.161Z,584.00
2022-12-11T14:43:28.158Z,544.00
2022-12-11T14:44:23.126Z,508.00
2022-12-11T14:45:23.116Z,488.00
2022-12-11T14:46:23.206Z,472.00
2022-12-11T14:47:23.122Z,444.00
2022-12-11T14:48:23.085Z,424.00
2022-12-11T14:49:23.075Z,384.00
2022-12-11T14:50:23.078Z,376.00
2022-12-11T14:51:23.056Z,376.00
2022-12-11T14:52:23.049Z,376.00
2022-12-11T14:53:23.028Z,376.00
2022-12-11T14:54:28.039Z,376.00
2022-12-11T14:55:23.006Z,372.00
2022-12-11T14:56:22.996Z,364.00
2022-12-11T14:57:23.007Z,356.00
2022-12-11T14:58:22.974Z,340.00
2022-12-11T14:59:26.982Z,324.00
2022-12-11T15:00:23.953Z,308.00
2022-12-11T15:01:23.035Z,292.00
2022-12-11T15:02:23.150Z,284.00
2022-12-11T15:03:22.921Z,280.00
2022-12-11T15:04:22.909Z,260.00
2022-12-11T15:05:27.944Z,244.00
2022-12-11T15:06:22.899Z,228.00
2022-12-11T15:07:22.885Z,220.00
2022-12-11T15:08:22.941Z,220.00
2022-12-11T15:09:22.853Z,208.00
2022-12-11T15:10:22.842Z,200.00
2022-12-11T15:11:22.833Z,184.00
2022-12-11T15:12:22.831Z,160.00
2022-12-11T15:13:22.819Z,144.00
2022-12-11T15:14:22.800Z,136.00
2022-12-11T15:15:22.786Z,132.00
2022-12-11T15:16:27.831Z,124.00
2022-12-11T15:17:22.789Z,108.00
2022-12-11T15:18:22.790Z,96.00
2022-12-11T15:19:22.743Z,92.00
2022-12-11T15:20:22.743Z,88.00
2022-12-11T15:21:22.741Z,88.00
2022-12-11T15:22:22.729Z,88.00
2022-12-11T15:23:23.590Z,84.00
2022-12-11T15:24:22.695Z,76.00
2022-12-11T15:25:22.687Z,68.00
2022-12-11T15:26:22.674Z,64.00
2022-12-11T15:27:27.691Z,56.00
2022-12-11T15:28:22.647Z,48.00
2022-12-11T15:29:22.646Z,44.00
2022-12-11T15:30:22.624Z,40.00
2022-12-11T15:31:22.616Z,36.00
2022-12-11T15:32:22.601Z,28.00
2022-12-11T15:33:22.607Z,24.00
2022-12-11T15:34:22.579Z,20.00
2022-12-11T15:35:22.584Z,20.00
2022-12-11T15:36:22.561Z,20.00
2022-12-11T15:37:22.571Z,20.00
2022-12-11T15:38:27.571Z,16.00
2022-12-11T15:39:22.548Z,16.00
2022-12-11T15:40:22.526Z,12.00
2022-12-11T15:41:22.509Z,12.00
2022-12-11T15:42:22.496Z,8.00
2022-12-11T15:43:22.495Z,8.00
2022-12-11T15:44:22.488Z,8.00
2022-12-11T15:45:22.463Z,8.00
2022-12-11T15:46:22.551Z,4.00
2022-12-11T15:47:22.441Z,8.00
2022-12-11T15:48:22.447Z,4.00
2022-12-11T15:49:27.441Z,4.00
2022-12-11T15:50:22.418Z,4.00
2022-12-11T15:51:22.401Z,4.00
2022-12-11T15:52:22.388Z,4.00
2022-12-11T15:53:22.408Z,0.00
2022-12-11T15:54:22.370Z,0.00
2022-12-11T15:55:22.352Z,4.00
2022-12-11T15:56:22.344Z,0.00
2022-12-11T15:57:22.342Z,0.00
2022-12-11T15:58:23.305Z,0.00
2022-12-11T15:59:22.324Z,0.00
2022-12-11T16:00:27.324Z,0.00
2022-12-11T16:01:22.339Z,0.00
2022-12-11T16:02:22.315Z,0.00
2022-12-11T16:03:22.282Z,0.00
2022-12-11T16:04:22.279Z,0.00
2022-12-11T16:05:22.245Z,0.00
2022-12-11T16:06:22.231Z,0.00
2022-12-11T16:07:22.232Z,0.00
2022-12-11T16:08:22.371Z,0.00
2022-12-11T16:09:22.241Z,0.00
2022-12-11T16:10:22.213Z,0.00
2022-12-11T16:11:27.211Z,0.00
2022-12-11T16:12:22.206Z,0.00
2022-12-11T16:13:22.170Z,0.00
2022-12-11T16:14:22.176Z,0.00
2022-12-11T16:15:24.052Z,0.00
2022-12-11T16:16:22.195Z,0.00
2022-12-11T16:17:22.115Z,0.00
2022-12-11T16:18:22.103Z,0.00
2022-12-11T16:19:22.141Z,0.00
2022-12-11T16:20:22.082Z,0.00
2022-12-11T16:21:22.072Z,0.00
2022-12-11T16:22:27.084Z,0.00
2022-12-11T16:23:22.076Z,0.00
2022-12-11T16:24:22.042Z,0.00
2022-12-11T16:25:22.082Z,0.00
2022-12-11T16:26:22.030Z,0.00
2022-12-11T16:27:23.347Z,0.00
2022-12-11T16:28:22.002Z,0.00
2022-12-11T16:29:21.985Z,0.00
2022-12-11T16:30:21.987Z,0.00
2022-12-11T16:31:22.049Z,0.00
2022-12-11T16:32:21.948Z,0.00
2022-12-11T16:33:26.967Z,0.00
2022-12-11T16:34:21.933Z,0.00
2022-12-11T16:35:21.940Z,0.00
2022-12-11T16:36:21.907Z,0.00
2022-12-11T16:37:21.902Z,0.00
2022-12-11T16:38:21.887Z,0.00
2022-12-11T16:39:21.914Z,0.00
2022-12-11T16:40:21.922Z,0.00
2022-12-11T16:41:21.883Z,0.00
2022-12-11T16:42:21.841Z,0.00
2022-12-11T16:43:21.840Z,0.00
2022-12-11T16:44:26.867Z,0.00
2022-12-11T16:45:21.824Z,0.00
2022-12-11T16:46:21.849Z,0.00
2022-12-11T16:47:21.845Z,0.00
2022-12-11T16:48:21.773Z,0.00
2022-12-11T16:49:21.765Z,0.00
2022-12-11T16:50:21.757Z,0.00
2022-12-11T16:51:21.840Z,0.00
2022-12-11T16:52:22.450Z,0.00
2022-12-11T16:53:21.723Z,0.00
2022-12-11T16:54:21.715Z,0.00
2022-12-11T16:55:26.745Z,0.00
2022-12-11T16:56:21.700Z,0.00
2022-12-11T16:57:21.681Z,0.00
2022-12-11T16:58:21.708Z,0.00
2022-12-11T16:59:21.657Z,0.00
2022-12-11T17:00:21.648Z,0.00
2022-12-11T17:01:21.779Z,0.00
2022-12-11T17:02:21.681Z,0.00
2022-12-11T17:03:21.615Z,0.00
2022-12-11T17:04:21.602Z,0.00
2022-12-11T17:05:21.593Z,0.00
2022-12-11T17:06:26.614Z,0.00
2022-12-11T17:07:21.590Z,0.00
2022-12-11T17:08:21.625Z,0.00
2022-12-11T17:09:21.556Z,0.00
2022-12-11T17:10:21.539Z,0.00
2022-12-11T17:11:21.569Z,0.00
2022-12-11T17:12:21.517Z,0.00
2022-12-11T17:13:21.512Z,0.00
2022-12-11T17:14:21.517Z,0.00
2022-12-11T17:15:21.483Z,0.00
2022-12-11T17:16:21.524Z,0.00
2022-12-11T17:17:26.482Z,0.00
2022-12-11T17:18:21.452Z,0.00
2022-12-11T17:19:21.498Z,0.00
2022-12-11T17:20:21.441Z,0.00
2022-12-11T17:21:21.420Z,0.00
2022-12-11T17:22:21.426Z,0.00
2022-12-11T17:23:21.393Z,0.00
2022-12-11T17:24:21.384Z,0.00
2022-12-11T17:25:21.378Z,0.00
2022-12-11T17:26:21.366Z,0.00
2022-12-11T17:27:21.364Z,0.00
2022-12-11T17:28:26.366Z,0.00
2022-12-11T17:29:21.333Z,0.00
2022-12-11T17:30:21.345Z,0.00
2022-12-11T17:31:21.566Z,0.00
2022-12-11T17:32:21.311Z,0.00